createdAt,value
2023-02-22T00:00:18.395Z,95.18
2023-02-22T00:01:21.918Z,95.22
2023-02-22T00:02:24.988Z,95.19
2023-02-22T00:04:00.205Z,95.26
2023-02-22T00:05:03.358Z,95.23
2023-02-22T00:06:06.170Z,95.17
2023-02-22T00:07:40.942Z,95.14
2023-02-22T00:08:43.797Z,95.13
2023-02-22T00:09:46.635Z,95.20
2023-02-22T00:11:22.123Z,95.18
2023-02-22T00:12:25.023Z,95.21
2023-02-22T00:13:27.988Z,95.13
2023-02-22T00:15:02.787Z,95.14
2023-02-22T00:16:05.960Z,95.10
2023-02-22T00:17:09.259Z,95.14
2023-02-22T00:18:44.144Z,95.13
2023-02-22T00:19:46.990Z,95.14
2023-02-22T00:20:49.826Z,95.09
2023-02-22T00:22:24.834Z,95.12
2023-02-22T00:23:27.680Z,95.09
2023-02-22T00:24:30.814Z,95.05
2023-02-22T00:26:05.713Z,95.07
2023-02-22T00:27:08.413Z,95.10
2023-02-22T00:28:11.521Z,95.10
2023-02-22T00:29:46.421Z,95.14
2023-02-22T00:30:49.543Z,95.11
2023-02-22T00:31:52.796Z,95.11
2023-02-22T00:33:28.674Z,95.07
2023-02-22T00:34:31.830Z,95.11
2023-02-22T00:35:34.713Z,95.08
2023-02-22T00:37:10.029Z,95.03
2023-02-22T00:38:12.956Z,95.05
2023-02-22T00:39:16.381Z,94.99
2023-02-22T00:40:51.290Z,94.97
2023-02-22T00:41:54.118Z,95.00
2023-02-22T00:42:57.328Z,95.01
2023-02-22T00:44:32.030Z,94.97
2023-02-22T00:45:35.028Z,94.89
2023-02-22T00:46:38.136Z,94.87
2023-02-22T00:48:12.791Z,94.85
2023-02-22T00:49:15.878Z,94.73
2023-02-22T00:50:18.638Z,94.81
2023-02-22T00:51:53.474Z,94.80
2023-02-22T00:52:56.394Z,94.86
2023-02-22T00:53:59.193Z,94.77
2023-02-22T00:55:34.394Z,94.77
2023-02-22T00:56:37.330Z,94.84
2023-02-22T00:57:40.298Z,94.88
2023-02-22T00:59:14.901Z,94.87
2023-02-22T01:00:17.976Z,94.84
2023-02-22T01:01:21.708Z,94.72
2023-02-22T01:02:24.817Z,94.29
2023-02-22T01:04:00.860Z,94.19
2023-02-22T01:05:04.100Z,94.31
2023-02-22T01:06:07.389Z,94.32
2023-02-22T01:07:42.082Z,94.02
2023-02-22T01:08:44.907Z,93.90
2023-02-22T01:09:47.963Z,93.88
2023-02-22T01:11:23.314Z,93.85
2023-02-22T01:12:26.313Z,93.98
2023-02-22T01:13:29.222Z,93.57
2023-02-22T01:15:04.222Z,93.62
2023-02-22T01:16:07.178Z,93.58
2023-02-22T01:17:10.313Z,93.06
2023-02-22T01:18:45.608Z,93.18
2023-02-22T01:19:48.584Z,92.87
2023-02-22T01:20:51.605Z,92.99
2023-02-22T01:22:26.674Z,92.92
2023-02-22T01:23:29.762Z,93.12
2023-02-22T01:24:32.744Z,93.13
2023-02-22T01:26:07.586Z,93.06
2023-02-22T01:27:10.589Z,93.04
2023-02-22T01:28:13.452Z,92.84
2023-02-22T01:29:48.194Z,92.99
2023-02-22T01:30:51.368Z,92.93
2023-02-22T01:31:54.771Z,92.94
2023-02-22T01:33:29.726Z,92.40
2023-02-22T01:34:32.661Z,92.47
2023-02-22T01:35:35.421Z,92.23
2023-02-22T01:37:10.462Z,92.40
2023-02-22T01:38:13.607Z,92.28
2023-02-22T01:39:16.436Z,92.15
2023-02-22T01:40:51.233Z,92.28
2023-02-22T01:41:54.274Z,92.39
2023-02-22T01:42:57.244Z,92.34
2023-02-22T01:44:31.878Z,92.24
2023-02-22T01:45:34.964Z,92.26
2023-02-22T01:46:37.959Z,91.97
2023-02-22T01:48:12.744Z,92.17
2023-02-22T01:49:15.698Z,92.17
2023-02-22T01:50:18.546Z,92.11
2023-02-22T01:51:53.390Z,91.82
2023-02-22T01:52:56.369Z,91.48
2023-02-22T01:53:59.366Z,91.64
2023-02-22T01:55:34.206Z,91.70
2023-02-22T01:56:37.235Z,91.60
2023-02-22T01:57:40.224Z,91.77
2023-02-22T01:59:14.972Z,91.63
2023-02-22T02:00:17.394Z,91.52
2023-02-22T02:01:20.905Z,91.56
2023-02-22T02:02:23.825Z,91.62
2023-02-22T02:03:58.778Z,91.66
2023-02-22T02:05:02.280Z,91.76
2023-02-22T02:06:05.706Z,91.68
2023-02-22T02:07:40.591Z,91.51
2023-02-22T02:08:43.305Z,91.55
2023-02-22T02:09:46.139Z,91.54
2023-02-22T02:11:21.407Z,91.51
2023-02-22T02:12:24.188Z,91.53
2023-02-22T02:13:26.949Z,91.51
2023-02-22T02:15:01.598Z,91.51
2023-02-22T02:16:04.390Z,91.51
2023-02-22T02:17:07.397Z,91.56
2023-02-22T02:18:42.180Z,91.68
2023-02-22T02:19:45.097Z,91.68
2023-02-22T02:20:47.919Z,91.64
2023-02-22T02:22:22.562Z,91.73
2023-02-22T02:23:25.524Z,91.74
2023-02-22T02:24:28.491Z,91.68
2023-02-22T02:26:03.233Z,91.72
2023-02-22T02:27:05.954Z,91.61
2023-02-22T02:28:08.692Z,91.64
2023-02-22T02:29:43.198Z,91.69
2023-02-22T02:30:46.096Z,91.70
2023-02-22T02:31:49.102Z,91.78
2023-02-22T02:33:25.140Z,91.72
2023-02-22T02:34:28.022Z,91.52
2023-02-22T02:35:30.956Z,91.58
2023-02-22T02:37:05.660Z,91.56
2023-02-22T02:38:08.526Z,91.52
2023-02-22T02:39:11.587Z,91.56
2023-02-22T02:40:46.717Z,91.39
2023-02-22T02:41:49.573Z,91.21
2023-02-22T02:42:52.273Z,91.32
2023-02-22T02:44:26.807Z,91.45
2023-02-22T02:45:29.588Z,91.45
2023-02-22T02:46:32.302Z,91.44
2023-02-22T02:48:07.176Z,91.35
2023-02-22T02:49:10.125Z,91.29
2023-02-22T02:50:12.849Z,91.36
2023-02-22T02:51:47.787Z,91.23
2023-02-22T02:52:50.697Z,91.30
2023-02-22T02:53:53.526Z,91.35
2023-02-22T02:55:28.244Z,91.24
2023-02-22T02:56:31.122Z,91.39
2023-02-22T02:57:34.103Z,91.37
2023-02-22T02:59:08.869Z,91.42
2023-02-22T03:00:17.905Z,91.48
2023-02-22T03:01:21.625Z,91.47
2023-02-22T03:02:24.694Z,91.39
2023-02-22T03:03:59.295Z,91.64
2023-02-22T03:05:02.129Z,91.58
2023-02-22T03:06:04.911Z,91.58
2023-02-22T03:07:39.840Z,91.50
2023-02-22T03:08:42.808Z,91.36
2023-02-22T03:09:45.684Z,91.54
2023-02-22T03:11:21.382Z,91.39
2023-02-22T03:12:24.257Z,91.15
2023-02-22T03:13:27.116Z,91.38
2023-02-22T03:15:01.812Z,91.55
2023-02-22T03:16:04.975Z,91.53
2023-02-22T03:17:08.141Z,91.55
2023-02-22T03:18:42.704Z,91.60
2023-02-22T03:19:45.500Z,91.50
2023-02-22T03:20:48.322Z,91.54
2023-02-22T03:22:22.915Z,91.45
2023-02-22T03:23:25.697Z,91.40
2023-02-22T03:24:28.451Z,91.44
2023-02-22T03:26:03.519Z,91.60
2023-02-22T03:27:06.385Z,91.72
2023-02-22T03:28:09.316Z,91.65
2023-02-22T03:29:43.932Z,91.60
2023-02-22T03:30:47.025Z,91.58
2023-02-22T03:31:50.275Z,91.55
2023-02-22T03:33:25.290Z,91.46
2023-02-22T03:34:28.175Z,91.51
2023-02-22T03:35:30.946Z,91.56
2023-02-22T03:37:05.514Z,91.51
2023-02-22T03:38:08.237Z,91.58
2023-02-22T03:39:11.040Z,91.49
2023-02-22T03:40:45.716Z,91.51
2023-02-22T03:41:48.507Z,91.47
2023-02-22T03:42:51.305Z,91.48
2023-02-22T03:44:25.969Z,91.42
2023-02-22T03:45:28.819Z,91.33
2023-02-22T03:46:31.917Z,91.39
2023-02-22T03:48:06.837Z,91.37
2023-02-22T03:49:09.596Z,91.18
2023-02-22T03:50:12.307Z,91.02
2023-02-22T03:51:46.968Z,91.09
2023-02-22T03:52:49.819Z,91.05
2023-02-22T03:53:52.594Z,91.06
2023-02-22T03:55:27.350Z,91.10
2023-02-22T03:56:30.131Z,91.10
2023-02-22T03:57:33.347Z,90.95
2023-02-22T03:59:08.137Z,90.99
2023-02-22T04:00:17.626Z,90.96
2023-02-22T04:01:21.210Z,91.00
2023-02-22T04:02:24.094Z,91.02
2023-02-22T04:03:59.243Z,90.98
2023-02-22T04:05:02.300Z,90.97
2023-02-22T04:06:05.161Z,90.82
2023-02-22T04:07:39.761Z,90.91
2023-02-22T04:08:42.554Z,90.80
2023-02-22T04:09:45.263Z,90.80
2023-02-22T04:11:20.436Z,91.10
2023-02-22T04:12:23.242Z,91.29
2023-02-22T04:13:25.894Z,91.31
2023-02-22T04:15:02.374Z,91.36
2023-02-22T04:16:05.462Z,91.33
2023-02-22T04:17:08.563Z,91.26
2023-02-22T04:18:43.389Z,91.18
2023-02-22T04:19:46.288Z,91.11
2023-02-22T04:20:49.227Z,91.21
2023-02-22T04:22:23.943Z,91.09
2023-02-22T04:23:26.839Z,91.14
2023-02-22T04:24:30.598Z,91.14
2023-02-22T04:26:05.386Z,91.18
2023-02-22T04:27:08.173Z,91.28
2023-02-22T04:28:10.946Z,91.29
2023-02-22T04:29:45.609Z,91.26
2023-02-22T04:30:48.555Z,91.17
2023-02-22T04:31:51.842Z,91.25
2023-02-22T04:33:27.024Z,91.13
2023-02-22T04:34:29.950Z,91.14
2023-02-22T04:35:35.294Z,91.14
2023-02-22T04:37:10.246Z,91.25
2023-02-22T04:38:13.245Z,91.27
2023-02-22T04:39:16.128Z,91.25
2023-02-22T04:40:51.227Z,91.26
2023-02-22T04:41:54.078Z,91.30
2023-02-22T04:42:56.776Z,91.14
2023-02-22T04:44:31.425Z,91.16
2023-02-22T04:45:34.243Z,91.16
2023-02-22T04:46:37.568Z,91.32
2023-02-22T04:48:12.128Z,91.42
2023-02-22T04:49:14.997Z,91.38
2023-02-22T04:50:19.635Z,91.36
2023-02-22T04:51:54.496Z,91.39
2023-02-22T04:52:57.369Z,91.51
2023-02-22T04:54:00.184Z,91.61
2023-02-22T04:55:35.022Z,91.61
2023-02-22T04:56:38.019Z,91.58
2023-02-22T04:57:40.767Z,91.63
2023-02-22T04:59:15.254Z,91.70
2023-02-22T05:00:18.143Z,91.67
2023-02-22T05:01:21.540Z,91.62
2023-02-22T05:02:24.312Z,91.53
2023-02-22T05:03:59.156Z,91.85
2023-02-22T05:05:02.372Z,91.81
2023-02-22T05:05:47.207Z,91.81
2023-02-22T05:06:51.094Z,91.91
2023-02-22T05:07:55.127Z,91.84
2023-02-22T05:09:30.496Z,91.94
2023-02-22T05:10:33.874Z,91.90
2023-02-22T05:11:37.023Z,92.00
2023-02-22T05:13:12.300Z,92.05
2023-02-22T05:14:15.367Z,91.97
2023-02-22T05:15:18.465Z,92.11
2023-02-22T05:16:54.382Z,92.18
2023-02-22T05:17:57.503Z,92.21
2023-02-22T05:19:00.701Z,92.20
2023-02-22T05:20:35.774Z,92.15
2023-02-22T05:21:38.929Z,92.41
2023-02-22T05:22:42.130Z,92.43
2023-02-22T05:24:17.280Z,92.53
2023-02-22T05:25:20.484Z,92.61
2023-02-22T05:26:23.710Z,92.61
2023-02-22T05:27:58.902Z,92.70
2023-02-22T05:29:01.854Z,92.71
2023-02-22T05:30:04.876Z,92.70
2023-02-22T05:31:40.925Z,92.53
2023-02-22T05:32:46.969Z,92.60
2023-02-22T05:33:50.173Z,92.60
2023-02-22T05:35:25.267Z,92.71
2023-02-22T05:36:28.666Z,92.74
2023-02-22T05:37:32.012Z,92.73
2023-02-22T05:39:07.246Z,92.67
2023-02-22T05:40:10.651Z,92.73
2023-02-22T05:41:13.697Z,92.95
2023-02-22T05:42:49.129Z,92.63
2023-02-22T05:43:52.238Z,92.58
2023-02-22T05:44:55.323Z,92.75
2023-02-22T05:46:30.294Z,92.65
2023-02-22T05:47:33.581Z,92.71
2023-02-22T05:48:36.807Z,92.71
2023-02-22T05:50:12.166Z,92.70
2023-02-22T05:51:15.748Z,92.70
2023-02-22T05:52:18.819Z,92.73
2023-02-22T05:53:54.166Z,92.78
2023-02-22T05:54:57.208Z,92.76
2023-02-22T05:56:00.276Z,92.75
2023-02-22T05:57:35.279Z,92.70
2023-02-22T05:58:38.544Z,92.70
2023-02-22T05:59:42.001Z,92.72
2023-02-22T06:00:17.829Z,92.84
2023-02-22T06:01:21.494Z,92.87
2023-02-22T06:02:24.825Z,92.84
2023-02-22T06:04:00.142Z,92.80
2023-02-22T06:05:03.444Z,92.96
2023-02-22T06:06:06.860Z,92.89
2023-02-22T06:07:41.800Z,92.97
2023-02-22T06:08:45.096Z,93.02
2023-02-22T06:09:48.167Z,92.99
2023-02-22T06:11:23.557Z,93.15
2023-02-22T06:12:26.879Z,93.05
2023-02-22T06:13:29.910Z,93.03
2023-02-22T06:15:05.130Z,93.10
2023-02-22T06:16:08.237Z,93.06
2023-02-22T06:17:11.838Z,93.01
2023-02-22T06:18:49.927Z,93.13
2023-02-22T06:19:53.001Z,93.13
2023-02-22T06:20:56.058Z,93.27
2023-02-22T06:22:31.664Z,93.24
2023-02-22T06:23:34.717Z,93.21
2023-02-22T06:24:37.752Z,93.20
2023-02-22T06:26:13.265Z,93.26
2023-02-22T06:27:16.615Z,93.13
2023-02-22T06:28:19.546Z,93.13
2023-02-22T06:29:54.650Z,93.20
2023-02-22T06:30:59.525Z,93.11
2023-02-22T06:32:03.745Z,93.05
2023-02-22T06:33:39.243Z,93.03
2023-02-22T06:34:42.429Z,92.99
2023-02-22T06:35:45.421Z,92.94
2023-02-22T06:37:20.666Z,92.90
2023-02-22T06:38:23.763Z,92.85
2023-02-22T06:39:26.850Z,92.78
2023-02-22T06:41:02.080Z,92.82
2023-02-22T06:42:05.299Z,92.71
2023-02-22T06:43:08.710Z,92.60
2023-02-22T06:44:43.925Z,92.61
2023-02-22T06:45:49.184Z,92.69
2023-02-22T06:46:52.334Z,92.65
2023-02-22T06:48:27.713Z,92.78
2023-02-22T06:49:30.898Z,92.75
2023-02-22T06:50:35.843Z,92.80
2023-02-22T06:52:11.197Z,92.86
2023-02-22T06:53:14.495Z,92.83
2023-02-22T06:54:17.791Z,92.80
2023-02-22T06:55:52.579Z,92.92
2023-02-22T06:56:55.721Z,93.16
2023-02-22T06:57:58.882Z,93.14
2023-02-22T06:59:33.873Z,93.20
2023-02-22T07:00:17.555Z,93.24
2023-02-22T07:01:21.719Z,93.21
2023-02-22T07:02:25.022Z,93.33
2023-02-22T07:04:00.044Z,93.27
2023-02-22T07:05:03.177Z,93.24
2023-02-22T07:06:06.355Z,93.34
2023-02-22T07:07:41.372Z,93.42
2023-02-22T07:08:44.765Z,93.39
2023-02-22T07:09:51.033Z,93.45
2023-02-22T07:11:26.251Z,93.50
2023-02-22T07:12:29.538Z,93.46
2023-02-22T07:13:32.569Z,93.59
2023-02-22T07:15:07.839Z,93.65
2023-02-22T07:16:10.934Z,93.60
2023-02-22T07:17:14.467Z,93.74
2023-02-22T07:18:49.217Z,93.80
2023-02-22T07:19:52.261Z,93.93
2023-02-22T07:20:55.425Z,94.00
2023-02-22T07:22:31.147Z,94.15
2023-02-22T07:23:34.271Z,94.22
2023-02-22T07:24:37.593Z,94.24
2023-02-22T07:26:12.714Z,94.32
2023-02-22T07:27:16.029Z,94.31
2023-02-22T07:28:19.006Z,94.38
2023-02-22T07:29:54.114Z,94.40
2023-02-22T07:30:57.305Z,94.45
2023-02-22T07:32:00.509Z,94.50
2023-02-22T07:33:36.549Z,94.61
2023-02-22T07:34:39.607Z,94.52
2023-02-22T07:35:42.839Z,94.72
2023-02-22T07:37:17.570Z,94.75
2023-02-22T07:38:20.659Z,94.80
2023-02-22T07:39:23.783Z,94.72
2023-02-22T07:40:58.968Z,94.80
2023-02-22T07:42:02.705Z,94.91
2023-02-22T07:43:07.105Z,94.86
2023-02-22T07:44:42.429Z,95.03
2023-02-22T07:45:45.284Z,95.03
2023-02-22T07:46:48.760Z,95.18
2023-02-22T07:48:23.957Z,95.18
2023-02-22T07:49:27.158Z,95.21
2023-02-22T07:50:30.430Z,95.23
2023-02-22T07:52:05.910Z,95.27
2023-02-22T07:53:09.108Z,95.22
2023-02-22T07:54:14.863Z,95.10
2023-02-22T07:55:49.730Z,95.20
2023-02-22T07:56:53.283Z,95.28
2023-02-22T07:57:56.378Z,95.42
2023-02-22T07:59:31.364Z,95.41
2023-02-22T08:00:18.204Z,95.36
2023-02-22T08:01:21.615Z,95.51
2023-02-22T08:02:24.956Z,95.60
2023-02-22T08:04:00.628Z,95.55
2023-02-22T08:05:03.586Z,95.55
2023-02-22T08:06:06.590Z,95.68
2023-02-22T08:07:41.627Z,95.75
2023-02-22T08:08:44.819Z,95.84
2023-02-22T08:09:47.948Z,95.70
2023-02-22T08:11:23.337Z,95.84
2023-02-22T08:12:26.427Z,96.04
2023-02-22T08:13:29.738Z,96.04
2023-02-22T08:15:04.706Z,96.02
2023-02-22T08:16:07.763Z,96.02
2023-02-22T08:17:13.416Z,96.10
2023-02-22T08:18:48.502Z,96.08
2023-02-22T08:19:51.458Z,96.00
2023-02-22T08:20:54.544Z,96.17
2023-02-22T08:22:30.178Z,96.22
2023-02-22T08:23:33.320Z,96.17
2023-02-22T08:24:36.300Z,96.23
2023-02-22T08:26:11.280Z,96.24
2023-02-22T08:27:14.258Z,96.19
2023-02-22T08:28:17.127Z,96.23
2023-02-22T08:29:51.773Z,96.19
2023-02-22T08:30:54.911Z,96.32
2023-02-22T08:31:58.853Z,96.29
2023-02-22T08:33:35.135Z,96.32
2023-02-22T08:34:38.111Z,96.33
2023-02-22T08:35:41.171Z,96.35
2023-02-22T08:37:16.353Z,96.35
2023-02-22T08:38:19.525Z,96.47
2023-02-22T08:39:22.553Z,96.50
2023-02-22T08:41:00.884Z,96.42
2023-02-22T08:42:04.525Z,96.47
2023-02-22T08:43:07.617Z,96.42
2023-02-22T08:44:42.223Z,96.42
2023-02-22T08:45:45.060Z,96.44
2023-02-22T08:46:49.742Z,96.45
2023-02-22T08:48:24.517Z,96.47
2023-02-22T08:49:27.700Z,96.55
2023-02-22T08:50:30.606Z,96.53
2023-02-22T08:52:08.179Z,96.57
2023-02-22T08:53:11.200Z,96.60
2023-02-22T08:54:14.114Z,96.59
2023-02-22T08:55:48.981Z,96.53
2023-02-22T08:56:51.900Z,96.51
2023-02-22T08:57:54.923Z,96.56
2023-02-22T08:59:30.208Z,96.60
2023-02-22T09:00:18.035Z,96.58
2023-02-22T09:01:34.034Z,96.63
2023-02-22T09:02:37.737Z,96.66
2023-02-22T09:04:12.493Z,96.62
2023-02-22T09:05:15.464Z,96.58
2023-02-22T09:06:18.792Z,96.55
2023-02-22T09:07:54.044Z,96.48
2023-02-22T09:08:57.318Z,96.38
2023-02-22T09:10:00.206Z,96.35
2023-02-22T09:11:35.509Z,96.28
2023-02-22T09:12:39.451Z,96.39
2023-02-22T09:13:42.416Z,96.43
2023-02-22T09:15:17.376Z,96.45
2023-02-22T09:16:20.516Z,96.48
2023-02-22T09:17:23.729Z,96.49
2023-02-22T09:18:58.630Z,96.46
2023-02-22T09:20:01.902Z,96.47
2023-02-22T09:21:05.106Z,96.41
2023-02-22T09:22:40.241Z,96.49
2023-02-22T09:23:43.239Z,96.48
2023-02-22T09:24:46.172Z,96.44
2023-02-22T09:26:34.970Z,96.50
2023-02-22T09:27:38.070Z,96.44
2023-02-22T09:28:41.334Z,96.36
2023-02-22T09:30:16.955Z,96.35
2023-02-22T09:31:21.411Z,96.36
2023-02-22T09:32:25.787Z,96.36
2023-02-22T09:34:04.243Z,96.37
2023-02-22T09:35:07.238Z,96.11
2023-02-22T09:36:10.236Z,96.08
2023-02-22T09:37:45.669Z,96.06
2023-02-22T09:38:48.532Z,96.09
2023-02-22T09:39:51.666Z,96.10
2023-02-22T09:41:26.567Z,95.95
2023-02-22T09:42:33.606Z,95.91
2023-02-22T09:43:36.701Z,95.98
2023-02-22T09:45:12.929Z,96.01
2023-02-22T09:46:16.622Z,95.98
2023-02-22T09:47:20.200Z,95.97
2023-02-22T09:49:13.933Z,96.00
2023-02-22T09:50:17.210Z,96.01
2023-02-22T09:51:20.186Z,96.05
2023-02-22T09:52:55.084Z,95.94
2023-02-22T09:53:58.026Z,95.91
2023-02-22T09:55:00.882Z,95.87
2023-02-22T09:56:35.781Z,95.80
2023-02-22T09:57:38.692Z,95.76
2023-02-22T09:58:41.953Z,95.76
2023-02-22T10:00:18.393Z,95.67
2023-02-22T10:01:21.616Z,95.67
2023-02-22T10:02:24.599Z,95.67
2023-02-22T10:04:02.060Z,95.57
2023-02-22T10:05:05.276Z,95.53
2023-02-22T10:06:08.656Z,95.51
2023-02-22T10:07:43.727Z,95.53
2023-02-22T10:08:46.657Z,95.55
2023-02-22T10:09:49.547Z,95.53
2023-02-22T10:11:24.924Z,95.50
2023-02-22T10:12:27.643Z,95.51
2023-02-22T10:13:30.764Z,95.52
2023-02-22T10:15:05.622Z,95.37
2023-02-22T10:16:08.584Z,95.34
2023-02-22T10:17:12.272Z,94.92
2023-02-22T10:18:47.093Z,94.36
2023-02-22T10:19:50.134Z,94.26
2023-02-22T10:20:53.283Z,94.59
2023-02-22T10:22:28.204Z,94.65
2023-02-22T10:23:31.093Z,94.61
2023-02-22T10:24:34.211Z,94.47
2023-02-22T10:26:09.346Z,94.54
2023-02-22T10:27:12.551Z,94.57
2023-02-22T10:28:15.550Z,94.67
2023-02-22T10:29:50.385Z,94.71
2023-02-22T10:31:14.577Z,94.63
2023-02-22T10:32:18.659Z,94.63
2023-02-22T10:33:53.822Z,94.14
2023-02-22T10:34:56.785Z,94.03
2023-02-22T10:35:59.750Z,94.06
2023-02-22T10:37:35.745Z,94.06
2023-02-22T10:38:39.062Z,94.10
2023-02-22T10:39:42.098Z,93.43
2023-02-22T10:41:17.638Z,93.39
2023-02-22T10:42:20.928Z,93.46
2023-02-22T10:43:23.933Z,93.35
2023-02-22T10:44:58.717Z,92.67
2023-02-22T10:46:02.072Z,92.79
2023-02-22T10:47:06.011Z,92.87
2023-02-22T10:48:42.280Z,92.93
2023-02-22T10:49:45.460Z,92.80
2023-02-22T10:50:48.620Z,92.89
2023-02-22T10:52:23.683Z,92.55
2023-02-22T10:53:26.799Z,92.47
2023-02-22T10:54:31.901Z,92.47
2023-02-22T10:56:16.383Z,92.38
2023-02-22T10:57:19.512Z,92.35
2023-02-22T10:58:22.813Z,92.05
2023-02-22T10:59:57.979Z,91.64
2023-02-22T11:00:18.039Z,91.20
2023-02-22T11:01:21.704Z,91.51
2023-02-22T11:02:25.264Z,91.42
2023-02-22T11:04:00.346Z,91.48
2023-02-22T11:05:03.434Z,91.62
2023-02-22T11:06:07.201Z,91.63
2023-02-22T11:07:42.054Z,91.55
2023-02-22T11:08:45.119Z,91.40
2023-02-22T11:09:48.352Z,91.42
2023-02-22T11:11:23.910Z,91.10
2023-02-22T11:12:27.048Z,90.91
2023-02-22T11:13:29.983Z,91.08
2023-02-22T11:15:04.875Z,90.79
2023-02-22T11:16:07.858Z,90.72
2023-02-22T11:17:10.738Z,90.64
2023-02-22T11:18:45.752Z,90.41
2023-02-22T11:19:48.680Z,90.52
2023-02-22T11:20:51.838Z,90.39
2023-02-22T11:22:26.980Z,89.79
2023-02-22T11:23:30.024Z,90.17
2023-02-22T11:26:28.210Z,89.66
2023-02-22T11:27:31.227Z,89.90
2023-02-22T11:28:34.169Z,89.80
2023-02-22T11:30:11.533Z,89.86
2023-02-22T11:31:15.618Z,90.00
2023-02-22T11:32:19.587Z,90.00
2023-02-22T11:33:54.768Z,89.67
2023-02-22T11:35:13.857Z,89.45
2023-02-22T11:36:18.213Z,89.11
2023-02-22T11:37:53.468Z,88.97
2023-02-22T11:38:56.465Z,88.48
2023-02-22T11:39:59.798Z,88.65
2023-02-22T11:41:34.691Z,88.69
2023-02-22T11:42:37.858Z,88.09
2023-02-22T11:43:41.291Z,87.62
2023-02-22T11:45:16.195Z,88.15
2023-02-22T11:46:30.508Z,88.50
2023-02-22T11:47:33.752Z,87.81
2023-02-22T11:49:08.748Z,87.74
2023-02-22T11:50:11.861Z,88.08
2023-02-22T11:51:14.955Z,87.83
2023-02-22T11:52:49.869Z,87.51
2023-02-22T11:53:53.114Z,87.26
2023-02-22T11:54:56.035Z,87.25
2023-02-22T11:56:44.434Z,86.68
2023-02-22T11:57:47.489Z,86.87
2023-02-22T11:58:52.431Z,86.71
2023-02-22T12:00:17.570Z,86.35
2023-02-22T12:01:20.698Z,86.45
2023-02-22T12:02:23.557Z,86.32
2023-02-22T12:04:10.823Z,86.11
2023-02-22T12:05:14.960Z,85.45
2023-02-22T12:06:18.511Z,85.73
2023-02-22T12:07:54.009Z,85.68
2023-02-22T12:09:11.841Z,85.78
2023-02-22T12:10:14.839Z,85.84
2023-02-22T12:11:49.695Z,86.26
2023-02-22T12:12:52.630Z,86.06
2023-02-22T12:13:55.555Z,86.33
2023-02-22T12:15:30.526Z,86.17
2023-02-22T12:16:33.971Z,85.59
2023-02-22T12:17:36.992Z,85.42
2023-02-22T12:19:24.420Z,84.93
2023-02-22T12:20:27.561Z,85.28
2023-02-22T12:21:30.722Z,84.28
2023-02-22T12:23:05.708Z,83.65
2023-02-22T12:24:08.893Z,83.52
2023-02-22T12:25:15.980Z,83.56
2023-02-22T12:26:52.385Z,83.43
2023-02-22T12:27:58.578Z,83.11
2023-02-22T12:29:17.092Z,83.63
2023-02-22T12:30:52.421Z,83.63
2023-02-22T12:31:56.419Z,83.72
2023-02-22T12:33:00.653Z,84.00
2023-02-22T12:34:36.518Z,83.97
2023-02-22T12:35:39.562Z,83.80
2023-02-22T12:36:42.892Z,83.82
2023-02-22T12:38:17.630Z,82.97
2023-02-22T12:39:20.871Z,83.14
2023-02-22T12:40:40.057Z,83.11
2023-02-22T12:42:15.002Z,83.01
2023-02-22T12:43:18.015Z,83.14
2023-02-22T12:44:21.121Z,83.02
2023-02-22T12:45:59.045Z,82.88
2023-02-22T12:47:02.311Z,82.85
2023-02-22T12:48:05.256Z,83.15
2023-02-22T12:49:40.128Z,82.81
2023-02-22T12:50:43.076Z,82.85
2023-02-22T12:51:46.261Z,82.60
2023-02-22T12:53:37.721Z,83.02
2023-02-22T12:54:40.734Z,83.22
2023-02-22T12:55:43.865Z,83.20
2023-02-22T12:57:20.396Z,83.05
2023-02-22T12:58:23.575Z,83.35
2023-02-22T12:59:26.596Z,83.27
2023-02-22T13:00:18.398Z,83.29
2023-02-22T13:01:22.222Z,83.19
2023-02-22T13:02:25.268Z,83.12
2023-02-22T13:04:08.571Z,83.50
2023-02-22T13:05:19.069Z,83.44
2023-02-22T13:06:22.369Z,83.54
2023-02-22T13:07:57.152Z,83.29
2023-02-22T13:09:00.063Z,83.07
2023-02-22T13:10:03.284Z,83.36
2023-02-22T13:11:38.545Z,83.08
2023-02-22T13:12:41.691Z,83.17
2023-02-22T13:13:44.772Z,83.31
2023-02-22T13:15:19.633Z,82.61
2023-02-22T13:16:23.332Z,82.76
2023-02-22T13:17:26.286Z,82.42
2023-02-22T13:19:01.294Z,82.72
2023-02-22T13:20:04.277Z,82.90
2023-02-22T13:21:07.866Z,82.91
2023-02-22T13:22:43.089Z,83.09
2023-02-22T13:23:45.854Z,82.77
2023-02-22T13:24:49.043Z,82.98
2023-02-22T13:26:24.187Z,82.47
2023-02-22T13:27:27.506Z,82.55
2023-02-22T13:28:30.745Z,82.47
2023-02-22T13:30:05.965Z,82.58
2023-02-22T13:31:09.350Z,82.22
2023-02-22T13:32:16.815Z,82.21
2023-02-22T13:33:51.866Z,82.31
2023-02-22T13:34:54.934Z,81.68
2023-02-22T13:35:57.692Z,81.76
2023-02-22T13:37:35.672Z,82.07
2023-02-22T13:38:39.106Z,82.32
2023-02-22T13:39:42.175Z,82.25
2023-02-22T13:41:17.443Z,82.62
2023-02-22T13:42:20.654Z,82.24
2023-02-22T13:43:24.571Z,82.01
2023-02-22T13:44:59.576Z,81.43
2023-02-22T13:46:02.543Z,81.86
2023-02-22T13:47:06.448Z,82.27
2023-02-22T13:48:41.733Z,82.32
2023-02-22T13:49:44.730Z,82.16
2023-02-22T13:50:48.146Z,81.97
2023-02-22T13:52:23.089Z,82.33
2023-02-22T13:53:25.907Z,82.15
2023-02-22T13:54:30.014Z,82.41
2023-02-22T13:56:04.829Z,82.50
2023-02-22T13:57:08.058Z,82.62
2023-02-22T13:58:11.336Z,82.59
2023-02-22T13:59:46.498Z,82.69
2023-02-22T14:00:18.078Z,82.82
2023-02-22T14:01:21.273Z,82.83
2023-02-22T14:02:24.769Z,82.82
2023-02-22T14:04:00.138Z,82.93
2023-02-22T14:05:03.612Z,83.01
2023-02-22T14:06:10.803Z,82.63
2023-02-22T14:07:46.333Z,82.94
2023-02-22T14:08:49.143Z,82.76
2023-02-22T14:09:52.671Z,82.81
2023-02-22T14:11:29.379Z,83.17
2023-02-22T14:12:32.424Z,82.64
2023-02-22T14:13:35.528Z,82.58
2023-02-22T14:15:27.721Z,82.78
2023-02-22T14:16:32.224Z,82.48
2023-02-22T14:17:35.511Z,82.59
2023-02-22T14:19:10.506Z,82.33
2023-02-22T14:20:13.438Z,82.56
2023-02-22T14:21:16.435Z,82.53
2023-02-22T14:22:53.773Z,82.46
2023-02-22T14:23:57.351Z,82.53
2023-02-22T14:25:00.516Z,82.54
2023-02-22T14:26:46.773Z,82.87
2023-02-22T14:27:49.844Z,82.94
2023-02-22T14:28:52.788Z,82.97
2023-02-22T14:30:27.699Z,82.86
2023-02-22T14:31:42.397Z,83.06
2023-02-22T14:32:46.254Z,83.25
2023-02-22T14:34:24.719Z,83.12
2023-02-22T14:35:48.136Z,83.12
2023-02-22T14:36:52.517Z,83.43
2023-02-22T14:38:27.788Z,83.31
2023-02-22T14:39:30.824Z,83.08
2023-02-22T14:40:37.229Z,83.07
2023-02-22T14:42:12.414Z,83.05
2023-02-22T14:43:15.639Z,83.35
2023-02-22T14:44:18.582Z,83.15
2023-02-22T14:45:53.680Z,83.30
2023-02-22T14:47:00.103Z,83.40
2023-02-22T14:48:03.014Z,83.68
2023-02-22T14:49:37.985Z,83.88
2023-02-22T14:50:40.861Z,83.83
2023-02-22T14:51:59.682Z,83.45
2023-02-22T14:53:34.855Z,83.71
2023-02-22T14:54:37.990Z,83.68
2023-02-22T14:55:41.499Z,83.69
2023-02-22T14:57:16.836Z,83.66
2023-02-22T14:58:21.568Z,83.84
2023-02-22T14:59:24.837Z,83.76
2023-02-22T15:00:17.406Z,83.70
2023-02-22T15:01:20.724Z,83.50
2023-02-22T15:02:58.861Z,83.30
2023-02-22T15:04:52.571Z,83.46
2023-02-22T15:05:55.808Z,83.56
2023-02-22T15:07:00.154Z,83.56
2023-02-22T15:08:35.240Z,83.58
2023-02-22T15:09:40.692Z,83.31
2023-02-22T15:10:43.957Z,83.50
2023-02-22T15:12:19.125Z,83.64
2023-02-22T15:13:22.380Z,83.86
2023-02-22T15:14:31.735Z,83.94
2023-02-22T15:16:08.167Z,83.97
2023-02-22T15:17:11.631Z,84.17
2023-02-22T15:18:14.768Z,84.16
2023-02-22T15:19:49.531Z,84.31
2023-02-22T15:20:52.362Z,84.40
2023-02-22T15:22:00.118Z,84.45
2023-02-22T15:23:35.154Z,84.55
2023-02-22T15:24:39.397Z,84.70
2023-02-22T15:25:42.334Z,84.74
2023-02-22T15:27:17.303Z,84.79
2023-02-22T15:28:20.722Z,84.94
2023-02-22T15:29:23.680Z,84.82
2023-02-22T15:30:58.987Z,84.76
2023-02-22T15:32:03.357Z,84.87
2023-02-22T15:33:10.526Z,84.91
2023-02-22T15:34:46.027Z,84.84
2023-02-22T15:35:49.009Z,84.85
2023-02-22T15:36:51.744Z,85.09
2023-02-22T15:38:26.875Z,85.18
2023-02-22T15:39:30.035Z,85.15
2023-02-22T15:40:32.982Z,85.43
2023-02-22T15:42:08.676Z,85.69
2023-02-22T15:43:11.587Z,85.76
2023-02-22T15:44:29.488Z,85.89
2023-02-22T15:46:04.635Z,85.75
2023-02-22T15:47:07.985Z,86.04
2023-02-22T15:48:11.217Z,86.42
2023-02-22T15:49:46.308Z,86.28
2023-02-22T15:50:51.973Z,86.65
2023-02-22T15:51:55.049Z,86.69